Wetterdaten: aktuell Dienstag, 29.11.2022 23:20
Datum Zeit Temp. A. Temp. Garten Temp. 3 Temp. Boden Feuchte A. LF Garten Feuchte 3 Bod.Feucht 1 Luftdruck Regen Wind Richtung Richtung Sonnenschein T Regen UV Solar Taupunkt Windchill Windben
29.11.2022 23:20 4,5 C 5,8 C 21,9 C 5,8 C 10 % 93 % 46 % 100 cb 1025,5 hPa 0,0 l/m 0,0 km/h (0 Bft) O-NO 66 0 min 0 min 0,0 UV-I 0 W/m -24,4 C 4,5 C 1,8 km/h (1 Bft)
29.11.2022 22:20 4,7 C 5,8 C 22,8 C 5,9 C 10 % 93 % 46 % 100 cb 1025,2 hPa 0,0 l/m 0,0 km/h (0 Bft) NO 53 0 min 0 min 0,0 UV-I 0 W/m -24,2 C 4,7 C 1,8 km/h (1 Bft)
29.11.2022 21:21 4,6 C 5,9 C 23,1 C 5,9 C 10 % 93 % 46 % 100 cb 1025,1 hPa 0,0 l/m 0,0 km/h (0 Bft) NO 50 0 min 0 min 0,0 UV-I 0 W/m -24,3 C 4,6 C 1,8 km/h (1 Bft)
29.11.2022 20:21 4,6 C 5,9 C 23,5 C 5,9 C 10 % 92 % 46 % 100 cb 1024,9 hPa 0,0 l/m 0,0 km/h (0 Bft) NO 55 0 min 0 min 0,0 UV-I 0 W/m -24,3 C 4,6 C 1,8 km/h (1 Bft)
29.11.2022 19:21 4,7 C 6,0 C 23,6 C 5,9 C 10 % 92 % 46 % 100 cb 1024,6 hPa 0,5 l/m 1,8 km/h (1 Bft) NO 56 0 min 4 min 0,0 UV-I 0 W/m -24,2 C 4,7 C 1,8 km/h (1 Bft)
29.11.2022 18:22 4,8 C 5,8 C 23,6 C 5,9 C 10 % 92 % 44 % 100 cb 1024,4 hPa 0,2 l/m 0,6 km/h (0 Bft) N-NO 28 0 min 2 min 0,0 UV-I 0 W/m -24,2 C 4,8 C 1,8 km/h (1 Bft)
29.11.2022 17:23 4,7 C 5,9 C 23,2 C 6,0 C 10 % 91 % 44 % 100 cb 1024,1 hPa 0,0 l/m 2,6 km/h (1 Bft) N-NW 335 0 min 0 min 0,0 UV-I 0 W/m -24,2 C 4,7 C 5,5 km/h (1 Bft)
29.11.2022 16:23 4,9 C 6,0 C 23,2 C 6,0 C 10 % 91 % 44 % 100 cb 1023,6 hPa 0,0 l/m 1,1 km/h (1 Bft) NO 37 0 min 0 min 0,0 UV-I 0 W/m -24,1 C 4,9 C 3,5 km/h (1 Bft)
29.11.2022 15:23 4,9 C 6,1 C 23,6 C 6,1 C 10 % 90 % 43 % 100 cb 1023,3 hPa 0,0 l/m 2,9 km/h (1 Bft) N-NO 17 0 min 0 min 0,0 UV-I 8 W/m -24,1 C 4,9 C 3,5 km/h (1 Bft)
29.11.2022 14:24 5,0 C 6,2 C 23,4 C 6,2 C 10 % 90 % 45 % 100 cb 1023,0 hPa 0,0 l/m 3,5 km/h (1 Bft) N-NO 18 0 min 0 min 0,0 UV-I 32 W/m -24,0 C 5,0 C 5,5 km/h (1 Bft)
29.11.2022 13:25 5,1 C 6,3 C 23,4 C 6,2 C 10 % 89 % 46 % 100 cb 1022,7 hPa 0,0 l/m 3,5 km/h (1 Bft) N-NO 18 0 min 0 min 0,0 UV-I 39 W/m -23,9 C 5,1 C 5,5 km/h (1 Bft)
29.11.2022 12:25 4,8 C 6,2 C 23,1 C 6,1 C 10 % 89 % 47 % 100 cb 1022,6 hPa 0,0 l/m 1,5 km/h (1 Bft) NW 326 0 min 0 min 0,0 UV-I 49 W/m -24,2 C 4,8 C 7,2 km/h (2 Bft)
29.11.2022 11:26 4,8 C 6,4 C 22,7 C 6,1 C 10 % 89 % 48 % 100 cb 1022,5 hPa 0,0 l/m 3,5 km/h (1 Bft) NW 324 0 min 0 min 0,0 UV-I 68 W/m -24,2 C 4,8 C 5,5 km/h (1 Bft)
29.11.2022 10:27 4,7 C 6,1 C 22,3 C 5,9 C 10 % 91 % 49 % 100 cb 1022,3 hPa 0,0 l/m 0,0 km/h (0 Bft) NO 50 0 min 0 min 0,0 UV-I 68 W/m -24,2 C 4,7 C 1,8 km/h (1 Bft)
29.11.2022 09:28 4,2 C 5,6 C 22,1 C 5,6 C 10 % 91 % 49 % 100 cb 1021,8 hPa 0,0 l/m 0,3 km/h (0 Bft) O-NO 63 0 min 0 min 0,0 UV-I 47 W/m -24,6 C 4,2 C 1,8 km/h (1 Bft)
29.11.2022 08:29 3,9 C 5,3 C 21,3 C 5,4 C 10 % 92 % 48 % 100 cb 1021,5 hPa 0,0 l/m 0,0 km/h (0 Bft) O-NO 70 0 min 0 min 0,0 UV-I 13 W/m -24,9 C 3,9 C 1,8 km/h (1 Bft)
29.11.2022 07:29 3,9 C 5,3 C 20,1 C 5,4 C 10 % 91 % 50 % 100 cb 1021,1 hPa 0,3 l/m 1,1 km/h (1 Bft) O-NO 70 0 min 2 min 0,0 UV-I 0 W/m -24,9 C 3,9 C 1,8 km/h (1 Bft)
29.11.2022 06:30 4,0 C 5,2 C 18,7 C 5,4 C 10 % 91 % 52 % 100 cb 1020,6 hPa 0,0 l/m 0,0 km/h (0 Bft) O-NO 67 0 min 0 min 0,0 UV-I 0 W/m -24,8 C 4,0 C 3,5 km/h (1 Bft)
29.11.2022 05:29 4,0 C 5,2 C 18,2 C 5,4 C 10 % 91 % 52 % 100 cb 1020,3 hPa 0,2 l/m 1,8 km/h (1 Bft) O-NO 71 0 min 2 min 0,0 UV-I 0 W/m -24,8 C 4,0 C 3,5 km/h (1 Bft)
29.11.2022 04:30 4,1 C 5,3 C 18,5 C 5,4 C 10 % 91 % 51 % 100 cb 1019,8 hPa 0,0 l/m 1,5 km/h (1 Bft) O-NO 65 0 min 0 min 0,0 UV-I 0 W/m -24,7 C 4,1 C 1,8 km/h (1 Bft)
29.11.2022 03:30 4,1 C 5,4 C 18,9 C 5,4 C 10 % 91 % 50 % 100 cb 1019,5 hPa 0,0 l/m 0,3 km/h (0 Bft) O-NO 65 0 min 0 min 0,0 UV-I 0 W/m -24,7 C 4,1 C 1,8 km/h (1 Bft)
29.11.2022 02:31 4,4 C 5,3 C 19,3 C 5,5 C 10 % 91 % 50 % 100 cb 1019,7 hPa 0,0 l/m 4,7 km/h (1 Bft) O 97 0 min 0 min 0,0 UV-I 0 W/m -24,5 C 3,5 C 5,5 km/h (1 Bft)
29.11.2022 01:31 4,5 C 5,3 C 19,7 C 5,4 C 10 % 91 % 49 % 100 cb 1019,5 hPa 0,0 l/m 7,2 km/h (2 Bft) O-NO 60 0 min 0 min 0,0 UV-I 0 W/m -24,4 C 2,8 C 9,3 km/h (2 Bft)
29.11.2022 00:31 4,4 C 5,4 C 20,4 C 5,4 C 10 % 92 % 49 % 100 cb 1019,7 hPa 0,0 l/m 3,2 km/h (1 Bft) O 80 0 min 0 min 0,0 UV-I 0 W/m -24,5 C 4,4 C 3,5 km/h (1 Bft)
29.11.2022 00:01 4,3 C 5,4 C 20,8 C 5,5 C 10 % 92 % 48 % 100 cb 1019,7 hPa 0,0 l/m 5,0 km/h (1 Bft) O-NO 71 0 min 0 min 0,0 UV-I 0 W/m -24,6 C 3,3 C 7,2 km/h (2 Bft)
_ Min-Zeit 05:52 02:49 05:33 00:03 00:01 12:44 15:23 00:01 00:54 - 00:03 - - - - - - 05:52 00:52 02:55
Minimum _ 3,9 C 5,2 C 18,1 C 5,4 C 10 % 87 % 43 % 100 cb 1019,3 hPa - 0,0 km/h (0 Bft) - - - - - - -24,9 C 2,2 C 0,0 km/h (0 Bft)
_ Max-Zeit 13:21 12:33 15:19 12:29 00:01 12:31 05:23 00:01 21:46 06:46 00:52 - - 00:01 04:36 00:01 11:02 13:21 13:27 00:52
Maximum _ 5,2 C 7,5 C 23,6 C 6,2 C 10 % 93 % 52 % 100 cb 1025,6 hPa 0,3 l/m 8,7 km/h
O-SO (2 Bft)
- - 0 min 2 min 0,0 UV-I 76 W/m -23,9 C 5,2 C 11,1 km/h
O-SO (2 Bft)
Durchschnitt _ 4,5 C 5,8 C 21,7 C 5,8 C 10 % 91 % 48 % 100 cb 1022,3 hPa #1,2 l/m 1,3 km/h (1 Bft) NO - #0 min. #10 min. 0,0 UV-I 13 W/m -24,4 C 4,5 C 3,2 km/h (1 Bft)